AREA preflight bulletin
Updated "live" 20 Jul 2019, 00:56

back to the map




METAR og TAF


THULE (MIL)
  AKTUEL BGTL 192356Z AUTO 09012KT 9999 OVC050 08/04 A2973 RMK AO2 SLP050 T00820038 10099 20077 51009 TSNO ?=
  TAF 24 timer BGTL 191829Z 1918/2023 VRB06KT 9999 FEW020 OVC040 620409 QNH2965INS BECMG 1918/1919 12010G15KT 9000 -RA FEW010 SCT020 OVC030 620309 510009 QNH2965INS BECMG 1922/1923 08009KT 9999 NSW FEW010 SCT020 OVC030 620309 QNH2970INS BECMG 2006/2007 VRB06KT 9000 -RA FEW010 BKN020 OVC030 620309 QNH2974INS BECMG 2011/2012 VRB06KT 9000 -RA OVC030 620309 QNH2974INS TX10/1918Z TN06/2006Z LAST NO AMDS AFT 1919 NEXT 2010=

QAANAAQ
  AKTUEL BGQQ 200050Z AUTO 13010KT 8000NDV -SHRA ///026/// 08/06 Q1008 RMK /// =
  TAF 9 timer BGQQ 191831Z 1918/1921 VRB05KT 9999 FEW040 SCT080 TEMPO 1918/1921 10015KT -RA BKN035=

UPERNAVIK
  AKTUEL BGUK 200050Z AUTO 09014KT 9999NDV -SHRA BKN061/// 07/06 Q1009=
  TAF 9 timer BGUK 191741Z 1917/1920 20028G38KT 9999 -RADZ FEW006 SCT030 BKN100 TEMPO 1917/1920 SCT006 BKN012 BECMG 1918/1920 19015KT =

ILULISSAT
  AKTUEL BGJN 200050Z 20001KT 9999 FEW040 BKN190 09/06 Q1012=
  TAF 9 timer BGJN 192314Z 2000/2006 VRB06KT 9999 SCT050 TEMPO 2000/2006 BKN035=

KANGERLUSSUAQ
  AKTUEL BGSF 200050Z 05007KT 9999 -RA SCT070 OVC150 09/05 Q1013=
  TAF 24 timer BGSF 192252Z 2000/2106 VRB08KT 9999 FEW060 BKN120 TEMPO 2000/2012 -RA BKN020 TEMPO 2012/2106 BKN060=


SIGMETS:

Ingen SIGMET fundet:

NOTAM/SNOWTAM for operationel use has to be confirmed with the
nearest AIS Briefing Office prior to a flight.

ICAO
BGTL (THULE (MIL))

FIR
BGGL

Notam_id:
BGA0359/19

valid from:
1907121829

E) NAVAID BGTL TACAN RADIALS CW 055-099 BEYOND 32.0NM SFC-12000FT UNUSABLE

valid to:
1909131900




ICAO
BGTL (THULE (MIL))

FIR
BGGL

Notam_id:
BGA0355/19

valid from:
1907121831

E) NAVAID BGTL TACAN RADIALS CW 240-295 BEYOND 35.0NM SFC-5000FT UNUSABLE

valid to:
1909131900




ICAO
BGTL (THULE (MIL))

FIR
BGGL

Notam_id:
BGA0316/19

valid from:
1908150000

E) TRIGGER NOTAM - PERM AIP AIRAC AMDT 05/19 WEF 15 AUG 2019. CHANGES TO DE-ICING.

valid to:
1908282359




ICAO
BGTL (THULE (MIL))

FIR
BGGL

Notam_id:
BGA0362/19

valid from:
1907121822

E) NAVAID BGTL VOR RADIALS CW R100-R170 BEYOND 30.0NM SFC-9000FT UNUSABLE

valid to:
1909131900




ICAO
BGTL (THULE (MIL))

FIR
BGGL

Notam_id:
BGA0358/19

valid from:
1907121826

E) NAVAID BGTL TACAN RADIALS CW 100-175 BEYOND 17.0NM SFC-9000FT UNUSABLE

valid to:
1909131900




ICAO
BGTL (THULE (MIL))

FIR
BGGL

Notam_id:
BGA0354/19

valid from:
1907121830

E) NAVAID BGTL TACAN RADIALS CW 325-054 BEYOND 35.0NM SFC-8000FT UNUSABLE

valid to:
1909131900




ICAO
BGTL (THULE (MIL))

FIR
BGGL

Notam_id:
BGA0360/19

valid from:
1907121916

E) NAVAID BGTL VOR RTS

valid to:
1909131900




ICAO
BGTL (THULE (MIL))

FIR
BGGL

Notam_id:
BGA0361/19

valid from:
1907121819

E) NAVAID BGTL VOR RADIALS CW R100-R170 BEYOND 24.0NM SFC-6000FT UNUSABLE

valid to:
1909131900




ICAO
BGTL (THULE (MIL))

FIR
BGGL

Notam_id:
BGA0356/19

valid from:
1907121832

E) NAVAID BGTL TACAN RADIALS CW 176-239 BEYOND 35.0NM SFC-9000FT UNUSABLE

valid to:
1909131900




ICAO
BGTL (THULE (MIL))

FIR
BGGL

Notam_id:
BGA0357/19

valid from:
1907121827

E) NAVAID BGTL TACAN RADIALS CW 100-175 BEYOND 34.0NM SFC-12000FT UNUSABLE

valid to:
1909131900




ICAO
BGTL (THULE (MIL))

FIR
BGGL

Notam_id:
BGA0353/19

valid from:
1907121824

E) NAVAID BGTL TACAN RTS

valid to:
1909131900




ICAO
BGUK (UPERNAVIK)

FIR
BGGL

Notam_id:
BGB0450/19

valid from:
1906251952

E) ATS TELEPHONE LINE +299 382765 U/S TO CONTACT BGUK AFIS USE +299 38 27 69.

valid to:
1907311400EST




ICAO
BGUK (UPERNAVIK)

FIR
BGGL

Notam_id:
BGB0507/19

valid from:
1907201000

E) SEA RESCUE SERVICE OUT OF U/S.

valid to:
1907201800




ICAO
BGUK (UPERNAVIK)

FIR
BGGL

Notam_id:
BGB0504/19

valid from:
1909120000

E) TRIGGER NOTAM - PERM AIP AIRAC AMDT 06/19 WEF 12 SEP 2019. CHANGES TO RESCUE EQUIPMENT.

valid to:
1909252359




ICAO
BGUK (UPERNAVIK)

FIR
BGGL

Notam_id:
BGB0145/19

valid from:
1903041251

E) FIRE AND RESCUE CAT. 5 ONLY AVAILBLAE WHEN REQUESTED DUE TO LACK OF STAFF.

valid to:
1912301500




ICAO
BGGL (SONDRESTROM FIR)

FIR
BGGL

Notam_id:
BGA0333/19

valid from:
1907010453

E) CHECKLIST YEAR=2017 0269 YEAR=2018 0199 YEAR=2019 0264 0282 0302 0313 0314 0316 0323 0329 0330 LATEST PUBLICATIONS AIP AIRAC AMDT IFR 005/2019 EFFECTIVE DATE 15 AUG 19 AIP AMDT IFR 003/2018 EFFECTIVE DATE 15 MAR 18 AIP SUP IFR 001/2019 EFFECTIVE DATE 06 JUN 19 AIC IFR A001/2019 EFFECTIVE DATE 17 JAN 19

valid to:
1908010453EST


Replacing:
BGA0278/19

ICAO
BGGL (SONDRESTROM FIR)

FIR
BGGL

Notam_id:
BGB0467/19

valid from:
1907010453

E) CHECKLIST YEAR=2017 0740 0930 YEAR=2018 0806 0811 YEAR=2019 0070 0145 0195 0207 0214 0243 0298 0299 0358 0394 0407 0416 0419 0433 0434 0435 0436 0437 0438 0446 0448 0450 0454 0460 0462 LATEST PUBLICATIONS AIP AIRAC AMDT IFR 005/2019 EFFECTIVE DATE 15 AUG 19 AIP AMDT IFR 003/2018 EFFECTIVE DATE 15 MAR 18 AIP SUP IFR 001/2019 EFFECTIVE DATE 06 JUN 19 AIC IFR A001/2019 EFFECTIVE DATE 17 JAN 19

valid to:
1908010453EST


Replacing:
BGB0405/19

ICAO
BGGL (SONDRESTROM FIR)

FIR
BGGL

Notam_id:
BGC0060/19

valid from:
1907010453

E) CHECKLIST YEAR=2018 0079 0081 YEAR=2019 0014 0015 0016 0017 0045 0046 0047 0049 0050 0051 0059 LATEST PUBLICATIONS AIP AIRAC AMDT IFR 005/2019 EFFECTIVE DATE 15 AUG 19 AIP AMDT IFR 003/2018 EFFECTIVE DATE 15 MAR 18 AIP SUP IFR 001/2019 EFFECTIVE DATE 06 JUN 19 AIC IFR A001/2019 EFFECTIVE DATE 17 JAN 19

valid to:
1908010453EST


Replacing:
BGC0053/19

ICAO
BGGL (SONDRESTROM FIR)

FIR
BGGL

Notam_id:
BGB0488/19

valid from:
1907072213

D) DAILY 0800-2200


E) TEMPORARY RESTRICTED AREA DUE TO DRONE ACTIVITY ACTIVATED. REF AIP SUP 01/19 PUBLISHED 06 JUN 2019. LATERAL LIMITS: 7551N03654W 7551N03506W 7524N03506W 7524N03654W. F) GND G) 14500FT AMSL

valid to:
1908092200


Replacing:
BGB0419/19

ICAO
BGGL (SONDRESTROM FIR)

FIR
BGGL

Notam_id:
BGA0363/19

valid from:
1909120000

E) TRIGGER NOTAM - PERM AIP AIRAC AMDT 06/19 WEF 12 SEP 2019. REF ENR 4.5: ABN KANGERSUATSIAQ ADDED AND CHANGES IN LOCATION/REMARKS AT SEVERAL ABN.

valid to:
1909252359




ICAO
BGGL (SONDRESTROM FIR)

FIR
BGGL

Notam_id:
BGA0199/18

valid from:
1805310935

E) GREENLAND AND ADJACENT WATERS ARE CONSIDERED HOSTILE AREAS BY THE CIVIL AVIATION AUTHORITY (TBST). THREE MAJOR REASONS CONTRIBUTE TO DEFINING THE AREA AS HOSTILE: A SAFE FORCED LANDING CANNOT BE ACCOMPLISHED BECAUSE THE SURFACE IS INADEQUATE. THE HELICOPTER OCCUPANTS CANNOT BE ADEQUATELY PROTECTED FROM THE ELEMENTS. SEARCH AND RESCUE RESPONSE/CAPABILITY ARE NOT PROVIDED CONSISTENT WITH ANTICIPATED EXPOSURE.

valid to:
PERM




ICAO
BGJN (ILULISSAT)

FIR
BGGL

Notam_id:
BGB0496/19

valid from:
1907100834

E) EVERY SECOND APCH LIGHT RWY 07/25 OUT OF SERVICE.

valid to:
1909301900




ICAO
BGSF (KANGERLUSSUAQ)

FIR
BGGL

Notam_id:
BGA0314/19

valid from:
1908150000

E) TRIGGER NOTAM - PERM AIP AIRAC AMDT 05/19 WEF 15 AUG 2019. NEW REMARK CONCERNING PCN.

valid to:
1908282359





Copyright Naviair   2003-2016